sensor_id;sensor_type;location;lat;lon;timestamp;pressure;altitude;pressure_sealevel;temperature;humidity
31681;BME280;18281;51.364;9.566;2022-09-24T00:01:32;99807.53;;;7.96;100.00
31681;BME280;18281;51.364;9.566;2022-09-24T00:04:00;99803.78;;;7.82;100.00
31681;BME280;18281;51.364;9.566;2022-09-24T00:06:29;99798.13;;;7.91;100.00
31681;BME280;18281;51.364;9.566;2022-09-24T00:08:56;99797.78;;;7.80;100.00
31681;BME280;18281;51.364;9.566;2022-09-24T00:11:24;99789.22;;;7.96;100.00
31681;BME280;18281;51.364;9.566;2022-09-24T00:13:51;99781.63;;;7.72;100.00
31681;BME280;18281;51.364;9.566;2022-09-24T00:16:18;99780.63;;;7.74;100.00
31681;BME280;18281;51.364;9.566;2022-09-24T00:18:44;99788.06;;;7.65;100.00
31681;BME280;18281;51.364;9.566;2022-09-24T00:21:22;99784.66;;;7.63;100.00
31681;BME280;18281;51.364;9.566;2022-09-24T00:23:53;99786.78;;;7.73;100.00
31681;BME280;18281;51.364;9.566;2022-09-24T00:26:19;99787.34;;;7.80;100.00
31681;BME280;18281;51.364;9.566;2022-09-24T00:29:05;99780.00;;;7.69;100.00
31681;BME280;18281;51.364;9.566;2022-09-24T00:31:31;99788.00;;;7.47;100.00
31681;BME280;18281;51.364;9.566;2022-09-24T00:33:57;99790.41;;;7.52;100.00
31681;BME280;18281;51.364;9.566;2022-09-24T00:36:22;99784.66;;;7.63;100.00
31681;BME280;18281;51.364;9.566;2022-09-24T00:38:50;99783.69;;;7.65;100.00
31681;BME280;18281;51.364;9.566;2022-09-24T00:41:17;99786.38;;;7.64;100.00
31681;BME280;18281;51.364;9.566;2022-09-24T00:43:44;99789.06;;;7.43;100.00
31681;BME280;18281;51.364;9.566;2022-09-24T00:46:33;99783.13;;;7.39;100.00
31681;BME280;18281;51.364;9.566;2022-09-24T00:49:19;99781.78;;;7.31;100.00
31681;BME280;18281;51.364;9.566;2022-09-24T00:51:49;99771.97;;;7.36;100.00
31681;BME280;18281;51.364;9.566;2022-09-24T00:54:22;99774.44;;;7.39;100.00
31681;BME280;18281;51.364;9.566;2022-09-24T00:56:51;99777.97;;;7.38;100.00
31681;BME280;18281;51.364;9.566;2022-09-24T00:59:22;99775.56;;;7.33;100.00
31681;BME280;18281;51.364;9.566;2022-09-24T01:01:49;99780.72;;;7.35;100.00
31681;BME280;18281;51.364;9.566;2022-09-24T01:04:17;99781.66;;;7.34;100.00
31681;BME280;18281;51.364;9.566;2022-09-24T01:06:49;99778.69;;;7.22;100.00
31681;BME280;18281;51.364;9.566;2022-09-24T01:09:17;99775.22;;;7.41;100.00
31681;BME280;18281;51.364;9.566;2022-09-24T01:11:50;99780.84;;;7.13;100.00
31681;BME280;18281;51.364;9.566;2022-09-24T01:14:32;99787.41;;;6.82;100.00
31681;BME280;18281;51.364;9.566;2022-09-24T01:30:58;99775.00;;;7.07;100.00
31681;BME280;18281;51.364;9.566;2022-09-24T01:33:26;99781.53;;;6.97;100.00
31681;BME280;18281;51.364;9.566;2022-09-24T01:35:57;99772.72;;;7.00;100.00
31681;BME280;18281;51.364;9.566;2022-09-24T01:38:27;99769.56;;;7.12;100.00
31681;BME280;18281;51.364;9.566;2022-09-24T01:40:57;99764.94;;;7.38;100.00
31681;BME280;18281;51.364;9.566;2022-09-24T01:43:26;99767.16;;;7.07;100.00
31681;BME280;18281;51.364;9.566;2022-09-24T01:45:54;99770.78;;;6.84;100.00
31681;BME280;18281;51.364;9.566;2022-09-24T01:48:26;99759.59;;;7.01;100.00
31681;BME280;18281;51.364;9.566;2022-09-24T01:51:07;99761.09;;;7.07;100.00
31681;BME280;18281;51.364;9.566;2022-09-24T01:53:39;99770.34;;;7.14;100.00
31681;BME280;18281;51.364;9.566;2022-09-24T01:56:15;99750.66;;;7.45;100.00
31681;BME280;18281;51.364;9.566;2022-09-24T01:58:59;99742.84;;;7.26;100.00
31681;BME280;18281;51.364;9.566;2022-09-24T02:01:39;99755.69;;;6.91;100.00
31681;BME280;18281;51.364;9.566;2022-09-24T02:04:12;99754.34;;;7.03;100.00
31681;BME280;18281;51.364;9.566;2022-09-24T02:06:43;99749.13;;;7.03;100.00
31681;BME280;18281;51.364;9.566;2022-09-24T02:09:34;99737.88;;;7.01;100.00
31681;BME280;18281;51.364;9.566;2022-09-24T02:12:16;99737.53;;;7.28;100.00
31681;BME280;18281;51.364;9.566;2022-09-24T02:14:51;99736.81;;;7.05;100.00
31681;BME280;18281;51.364;9.566;2022-09-24T02:17:20;99747.78;;;6.93;100.00
31681;BME280;18281;51.364;9.566;2022-09-24T02:19:48;99743.03;;;6.82;100.00
31681;BME280;18281;51.364;9.566;2022-09-24T02:22:16;99747.94;;;6.69;100.00
31681;BME280;18281;51.364;9.566;2022-09-24T02:24:57;99745.19;;;6.93;100.00
31681;BME280;18281;51.364;9.566;2022-09-24T02:27:24;99745.06;;;6.96;100.00
31681;BME280;18281;51.364;9.566;2022-09-24T02:29:55;99748.91;;;6.87;100.00
31681;BME280;18281;51.364;9.566;2022-09-24T02:32:22;99754.44;;;7.00;100.00
31681;BME280;18281;51.364;9.566;2022-09-24T02:34:53;99747.00;;;6.90;100.00
31681;BME280;18281;51.364;9.566;2022-09-24T02:37:23;99744.38;;;6.90;100.00
31681;BME280;18281;51.364;9.566;2022-09-24T02:39:50;99744.91;;;6.99;100.00
31681;BME280;18281;51.364;9.566;2022-09-24T02:42:17;99742.31;;;6.99;100.00
31681;BME280;18281;51.364;9.566;2022-09-24T02:44:44;99743.31;;;6.96;100.00
31681;BME280;18281;51.364;9.566;2022-09-24T02:47:11;99732.50;;;7.04;100.00
31681;BME280;18281;51.364;9.566;2022-09-24T02:49:37;99742.63;;;6.91;100.00
31681;BME280;18281;51.364;9.566;2022-09-24T02:52:02;99732.31;;;6.88;100.00
31681;BME280;18281;51.364;9.566;2022-09-24T02:54:29;99727.91;;;6.90;100.00
31681;BME280;18281;51.364;9.566;2022-09-24T02:56:55;99732.69;;;6.80;100.00
31681;BME280;18281;51.364;9.566;2022-09-24T02:59:21;99728.13;;;6.65;100.00
31681;BME280;18281;51.364;9.566;2022-09-24T03:01:47;99729.03;;;6.84;100.00
31681;BME280;18281;51.364;9.566;2022-09-24T03:04:14;99724.31;;;6.93;100.00
31681;BME280;18281;51.364;9.566;2022-09-24T03:06:40;99720.41;;;7.03;100.00
31681;BME280;18281;51.364;9.566;2022-09-24T03:09:05;99722.75;;;6.68;100.00
31681;BME280;18281;51.364;9.566;2022-09-24T03:11:31;99719.56;;;6.82;100.00
31681;BME280;18281;51.364;9.566;2022-09-24T03:13:58;99715.19;;;6.82;100.00
31681;BME280;18281;51.364;9.566;2022-09-24T03:16:23;99713.69;;;6.77;100.00
31681;BME280;18281;51.364;9.566;2022-09-24T03:18:48;99721.50;;;6.57;100.00
31681;BME280;18281;51.364;9.566;2022-09-24T03:21:18;99719.25;;;6.69;100.00
31681;BME280;18281;51.364;9.566;2022-09-24T03:23:44;99720.16;;;6.68;100.00
31681;BME280;18281;51.364;9.566;2022-09-24T03:26:09;99716.13;;;6.61;100.00
31681;BME280;18281;51.364;9.566;2022-09-24T03:28:35;99716.13;;;6.61;100.00
31681;BME280;18281;51.364;9.566;2022-09-24T03:31:01;99703.88;;;6.63;100.00
31681;BME280;18281;51.364;9.566;2022-09-24T03:33:35;99700.00;;;6.71;100.00
31681;BME280;18281;51.364;9.566;2022-09-24T03:36:05;99694.88;;;6.70;100.00
31681;BME280;18281;51.364;9.566;2022-09-24T03:38:32;99693.31;;;6.66;100.00
31681;BME280;18281;51.364;9.566;2022-09-24T03:40:58;99691.09;;;6.56;100.00
31681;BME280;18281;51.364;9.566;2022-09-24T03:43:24;99698.84;;;6.58;100.00
31681;BME280;18281;51.364;9.566;2022-09-24T03:45:50;99698.03;;;6.57;100.00
31681;BME280;18281;51.364;9.566;2022-09-24T03:48:17;99692.59;;;6.62;100.00
31681;BME280;18281;51.364;9.566;2022-09-24T03:50:43;99692.66;;;6.61;100.00
31681;BME280;18281;51.364;9.566;2022-09-24T03:53:10;99695.34;;;6.59;100.00
31681;BME280;18281;51.364;9.566;2022-09-24T03:55:54;99693.84;;;6.53;100.00
31681;BME280;18281;51.364;9.566;2022-09-24T03:58:20;99693.72;;;6.56;100.00
31681;BME280;18281;51.364;9.566;2022-09-24T04:00:46;99687.00;;;6.51;100.00
31681;BME280;18281;51.364;9.566;2022-09-24T04:03:11;99690.66;;;6.47;100.00
31681;BME280;18281;51.364;9.566;2022-09-24T04:05:37;99690.94;;;6.40;100.00
31681;BME280;18281;51.364;9.566;2022-09-24T04:08:03;99688.38;;;6.39;100.00
31681;BME280;18281;51.364;9.566;2022-09-24T04:10:31;99695.16;;;6.43;100.00
31681;BME280;18281;51.364;9.566;2022-09-24T04:12:57;99699.28;;;6.28;100.00
31681;BME280;18281;51.364;9.566;2022-09-24T04:15:22;99693.03;;;6.32;100.00
31681;BME280;18281;51.364;9.566;2022-09-24T04:17:53;99691.91;;;6.38;100.00
31681;BME280;18281;51.364;9.566;2022-09-24T04:20:20;99698.34;;;6.09;100.00
31681;BME280;18281;51.364;9.566;2022-09-24T04:22:51;99705.19;;;6.32;100.00
31681;BME280;18281;51.364;9.566;2022-09-24T04:25:19;99702.34;;;6.17;100.00
31681;BME280;18281;51.364;9.566;2022-09-24T04:27:45;99707.66;;;6.14;100.00
31681;BME280;18281;51.364;9.566;2022-09-24T04:30:13;99709.56;;;6.11;100.00
31681;BME280;18281;51.364;9.566;2022-09-24T04:32:42;99703.13;;;6.19;100.00
31681;BME280;18281;51.364;9.566;2022-09-24T04:35:09;99694.25;;;6.23;100.00
31681;BME280;18281;51.364;9.566;2022-09-24T04:37:35;99709.06;;;6.23;100.00
31681;BME280;18281;51.364;9.566;2022-09-24T04:40:03;99701.16;;;6.24;100.00
31681;BME280;18281;51.364;9.566;2022-09-24T04:42:28;99699.75;;;6.17;100.00
31681;BME280;18281;51.364;9.566;2022-09-24T04:44:54;99701.22;;;6.23;100.00
31681;BME280;18281;51.364;9.566;2022-09-24T04:47:19;99700.41;;;6.22;100.00
31681;BME280;18281;51.364;9.566;2022-09-24T04:49:45;99700.81;;;6.12;100.00
31681;BME280;18281;51.364;9.566;2022-09-24T04:52:11;99703.63;;;6.07;100.00
31681;BME280;18281;51.364;9.566;2022-09-24T04:54:42;99704.06;;;5.76;100.00
31681;BME280;18281;51.364;9.566;2022-09-24T04:57:15;99705.72;;;5.99;100.00
31681;BME280;18281;51.364;9.566;2022-09-24T04:59:42;99712.56;;;6.01;100.00
31681;BME280;18281;51.364;9.566;2022-09-24T05:02:08;99704.53;;;6.06;100.00
31681;BME280;18281;51.364;9.566;2022-09-24T05:04:35;99705.88;;;5.94;100.00
31681;BME280;18281;51.364;9.566;2022-09-24T05:07:00;99706.16;;;5.66;100.00
31681;BME280;18281;51.364;9.566;2022-09-24T05:09:26;99701.84;;;5.87;100.00
31681;BME280;18281;51.364;9.566;2022-09-24T05:11:51;99701.94;;;6.06;100.00
31681;BME280;18281;51.364;9.566;2022-09-24T05:14:23;99705.97;;;5.93;100.00
31681;BME280;18281;51.364;9.566;2022-09-24T05:16:49;99702.31;;;5.97;100.00
31681;BME280;18281;51.364;9.566;2022-09-24T05:19:14;99705.88;;;5.94;100.00
31681;BME280;18281;51.364;9.566;2022-09-24T05:21:40;99718.69;;;6.00;100.00
31681;BME280;18281;51.364;9.566;2022-09-24T05:24:05;99716.69;;;5.85;100.00
31681;BME280;18281;51.364;9.566;2022-09-24T05:26:31;99714.53;;;5.74;100.00
31681;BME280;18281;51.364;9.566;2022-09-24T05:29:15;99704.66;;;5.82;100.00
31681;BME280;18281;51.364;9.566;2022-09-24T05:31:40;99707.97;;;5.86;100.00
31681;BME280;18281;51.364;9.566;2022-09-24T05:34:06;99703.13;;;5.99;100.00
31681;BME280;18281;51.364;9.566;2022-09-24T05:36:31;99699.63;;;5.78;100.00
31681;BME280;18281;51.364;9.566;2022-09-24T05:38:57;99714.06;;;5.64;100.00
31681;BME280;18281;51.364;9.566;2022-09-24T05:41:22;99712.66;;;5.78;100.00
31681;BME280;18281;51.364;9.566;2022-09-24T05:43:48;99709.97;;;5.79;100.00
31681;BME280;18281;51.364;9.566;2022-09-24T05:46:14;99705.06;;;5.71;100.00
31681;BME280;18281;51.364;9.566;2022-09-24T05:48:39;99711.66;;;5.60;100.00
31681;BME280;18281;51.364;9.566;2022-09-24T05:51:05;99706.91;;;5.69;100.00
31681;BME280;18281;51.364;9.566;2022-09-24T05:53:31;99707.19;;;5.84;100.00
31681;BME280;18281;51.364;9.566;2022-09-24T05:55:56;99710.28;;;5.94;100.00
31681;BME280;18281;51.364;9.566;2022-09-24T05:58:23;99707.31;;;5.81;100.00
31681;BME280;18281;51.364;9.566;2022-09-24T06:00:49;99713.78;;;5.93;100.00
31681;BME280;18281;51.364;9.566;2022-09-24T06:03:16;99712.63;;;6.00;100.00
31681;BME280;18281;51.364;9.566;2022-09-24T06:05:45;99705.03;;;6.76;100.00
31681;BME280;18281;51.364;9.566;2022-09-24T06:08:13;99709.53;;;7.31;100.00
31681;BME280;18281;51.364;9.566;2022-09-24T06:10:40;99703.59;;;7.64;100.00
31681;BME280;18281;51.364;9.566;2022-09-24T06:13:06;99705.09;;;7.87;100.00
31681;BME280;18281;51.364;9.566;2022-09-24T06:15:31;99703.25;;;8.07;100.00
31681;BME280;18281;51.364;9.566;2022-09-24T06:17:57;99694.94;;;8.16;100.00
31681;BME280;18281;51.364;9.566;2022-09-24T06:20:22;99688.47;;;7.71;100.00
31681;BME280;18281;51.364;9.566;2022-09-24T06:22:48;99705.41;;;7.26;100.00
31681;BME280;18281;51.364;9.566;2022-09-24T06:25:14;99705.56;;;6.64;100.00
31681;BME280;18281;51.364;9.566;2022-09-24T06:27:40;99710.94;;;6.80;100.00
31681;BME280;18281;51.364;9.566;2022-09-24T06:30:06;99705.63;;;6.62;100.00
31681;BME280;18281;51.364;9.566;2022-09-24T06:32:31;99708.16;;;6.84;100.00
31681;BME280;18281;51.364;9.566;2022-09-24T06:34:57;99708.22;;;6.83;100.00
31681;BME280;18281;51.364;9.566;2022-09-24T06:37:22;99703.19;;;6.78;100.00
31681;BME280;18281;51.364;9.566;2022-09-24T06:39:47;99705.53;;;6.84;100.00
31681;BME280;18281;51.364;9.566;2022-09-24T06:42:13;99704.16;;;6.96;100.00
31681;BME280;18281;51.364;9.566;2022-09-24T06:44:38;99699.53;;;7.03;100.00
31681;BME280;18281;51.364;9.566;2022-09-24T06:47:03;99703.94;;;7.01;100.00
31681;BME280;18281;51.364;9.566;2022-09-24T06:49:29;99703.94;;;7.01;100.00
31681;BME280;18281;51.364;9.566;2022-09-24T06:51:54;99702.69;;;7.65;100.00
31681;BME280;18281;51.364;9.566;2022-09-24T06:54:20;99707.94;;;8.00;100.00
31681;BME280;18281;51.364;9.566;2022-09-24T06:56:47;99698.44;;;8.17;100.00
31681;BME280;18281;51.364;9.566;2022-09-24T06:59:12;99701.09;;;8.15;100.00
31681;BME280;18281;51.364;9.566;2022-09-24T07:01:38;99702.09;;;8.13;100.00
31681;BME280;18281;51.364;9.566;2022-09-24T07:04:03;99705.78;;;7.91;100.00
31681;BME280;18281;51.364;9.566;2022-09-24T07:06:29;99704.94;;;7.73;100.00
31681;BME280;18281;51.364;9.566;2022-09-24T07:09:14;99703.25;;;7.89;100.00
31681;BME280;18281;51.364;9.566;2022-09-24T07:11:40;99699.56;;;7.94;100.00
31681;BME280;18281;51.364;9.566;2022-09-24T07:14:05;99697.94;;;7.73;100.00
31681;BME280;18281;51.364;9.566;2022-09-24T07:16:31;99697.28;;;7.87;100.00
31681;BME280;18281;51.364;9.566;2022-09-24T07:18:56;99701.56;;;7.88;100.00
31681;BME280;18281;51.364;9.566;2022-09-24T07:21:22;99704.78;;;7.94;100.00
31681;BME280;18281;51.364;9.566;2022-09-24T07:23:48;99716.63;;;7.83;100.00
31681;BME280;18281;51.364;9.566;2022-09-24T07:26:13;99723.31;;;7.52;100.00
31681;BME280;18281;51.364;9.566;2022-09-24T07:28:38;99728.44;;;7.73;100.00
31681;BME280;18281;51.364;9.566;2022-09-24T07:31:04;99737.63;;;7.63;100.00
31681;BME280;18281;51.364;9.566;2022-09-24T07:33:32;99733.72;;;7.54;100.00
31681;BME280;18281;51.364;9.566;2022-09-24T07:35:57;99741.44;;;7.38;100.00
31681;BME280;18281;51.364;9.566;2022-09-24T07:38:23;99738.78;;;7.57;100.00
31681;BME280;18281;51.364;9.566;2022-09-24T07:40:48;99738.56;;;7.98;100.00
31681;BME280;18281;51.364;9.566;2022-09-24T07:43:14;99735.44;;;8.44;100.00
31681;BME280;18281;51.364;9.566;2022-09-24T07:45:40;99727.13;;;8.36;100.00
31681;BME280;18281;51.364;9.566;2022-09-24T07:48:06;99738.94;;;8.08;100.00
31681;BME280;18281;51.364;9.566;2022-09-24T07:50:36;99734.25;;;8.50;100.00
31681;BME280;18281;51.364;9.566;2022-09-24T07:53:03;99730.38;;;8.41;100.00
31681;BME280;18281;51.364;9.566;2022-09-24T07:55:28;99733.03;;;8.90;100.00
31681;BME280;18281;51.364;9.566;2022-09-24T07:57:54;99722.53;;;8.74;100.00
31681;BME280;18281;51.364;9.566;2022-09-24T08:00:21;99728.16;;;8.67;100.00
31681;BME280;18281;51.364;9.566;2022-09-24T08:02:47;99729.47;;;8.91;100.00
31681;BME280;18281;51.364;9.566;2022-09-24T08:05:14;99727.84;;;9.06;100.00
31681;BME280;18281;51.364;9.566;2022-09-24T08:07:41;99735.16;;;9.16;100.00
31681;BME280;18281;51.364;9.566;2022-09-24T08:10:07;99728.78;;;9.21;100.00
31681;BME280;18281;51.364;9.566;2022-09-24T08:12:33;99730.91;;;9.47;100.00
31681;BME280;18281;51.364;9.566;2022-09-24T08:14:59;99728.03;;;9.67;100.00
31681;BME280;18281;51.364;9.566;2022-09-24T08:17:24;99727.75;;;9.56;100.00
31681;BME280;18281;51.364;9.566;2022-09-24T08:19:50;99724.84;;;9.93;100.00
31681;BME280;18281;51.364;9.566;2022-09-24T08:22:17;99712.78;;;10.35;99.73
31681;BME280;18281;51.364;9.566;2022-09-24T08:24:43;99706.03;;;10.31;99.42
31681;BME280;18281;51.364;9.566;2022-09-24T08:27:08;99713.25;;;10.27;100.00
31681;BME280;18281;51.364;9.566;2022-09-24T08:29:33;99717.44;;;10.15;99.50
31681;BME280;18281;51.364;9.566;2022-09-24T08:31:59;99718.81;;;10.51;98.71
31681;BME280;18281;51.364;9.566;2022-09-24T08:34:25;99711.41;;;10.44;98.47
31681;BME280;18281;51.364;9.566;2022-09-24T08:36:50;99709.16;;;10.52;96.61
31681;BME280;18281;51.364;9.566;2022-09-24T08:39:15;99713.66;;;10.79;96.67
31681;BME280;18281;51.364;9.566;2022-09-24T08:41:51;99714.97;;;10.71;97.01
31681;BME280;18281;51.364;9.566;2022-09-24T08:44:21;99709.22;;;11.37;94.93
31681;BME280;18281;51.364;9.566;2022-09-24T08:47:14;99706.63;;;11.50;93.82
31681;BME280;18281;51.364;9.566;2022-09-24T08:49:51;99696.16;;;11.63;92.85
31681;BME280;18281;51.364;9.566;2022-09-24T08:54:53;99697.16;;;11.47;92.52
31681;BME280;18281;51.364;9.566;2022-09-24T08:57:21;99698.81;;;11.75;91.90
31681;BME280;18281;51.364;9.566;2022-09-24T08:59:50;99699.59;;;11.50;91.86
31681;BME280;18281;51.364;9.566;2022-09-24T09:02:40;99693.22;;;11.67;91.97
31681;BME280;18281;51.364;9.566;2022-09-24T09:08:01;99696.97;;;12.18;89.91
31681;BME280;18281;51.364;9.566;2022-09-24T09:10:33;99699.69;;;12.16;89.36
31681;BME280;18281;51.364;9.566;2022-09-24T09:13:17;99694.88;;;12.62;88.78
31681;BME280;18281;51.364;9.566;2022-09-24T09:15:48;99698.75;;;12.56;88.16
31681;BME280;18281;51.364;9.566;2022-09-24T09:18:40;99694.25;;;12.32;89.10
31681;BME280;18281;51.364;9.566;2022-09-24T09:23:49;99696.75;;;12.59;88.02
31681;BME280;18281;51.364;9.566;2022-09-24T09:26:16;99700.78;;;12.52;88.72
31681;BME280;18281;51.364;9.566;2022-09-24T09:28:43;99698.25;;;12.38;88.88
31681;BME280;18281;51.364;9.566;2022-09-24T09:31:31;99705.72;;;12.96;87.75
31681;BME280;18281;51.364;9.566;2022-09-24T09:37:37;99700.06;;;13.13;87.99
31681;BME280;18281;51.364;9.566;2022-09-24T09:40:28;99695.44;;;13.17;86.61
31681;BME280;18281;51.364;9.566;2022-09-24T09:43:04;99706.28;;;13.49;86.01
31681;BME280;18281;51.364;9.566;2022-09-24T09:45:50;99690.69;;;13.22;85.89
31681;BME280;18281;51.364;9.566;2022-09-24T09:48:21;99694.69;;;13.52;87.18
31681;BME280;18281;51.364;9.566;2022-09-24T09:51:00;99687.84;;;13.12;85.35
31681;BME280;18281;51.364;9.566;2022-09-24T09:53:32;99690.19;;;13.04;84.95
31681;BME280;18281;51.364;9.566;2022-09-24T09:56:00;99700.38;;;13.21;85.40
31681;BME280;18281;51.364;9.566;2022-09-24T09:58:31;99696.22;;;13.06;85.83
31681;BME280;18281;51.364;9.566;2022-09-24T10:03:48;99699.19;;;13.25;84.37
31681;BME280;18281;51.364;9.566;2022-09-24T10:06:24;99699.94;;;13.52;83.07
31681;BME280;18281;51.364;9.566;2022-09-24T10:08:50;99694.81;;;13.13;84.31
31681;BME280;18281;51.364;9.566;2022-09-24T10:11:16;99691.34;;;13.13;85.35
31681;BME280;18281;51.364;9.566;2022-09-24T10:13:42;99693.91;;;13.25;84.84
31681;BME280;18281;51.364;9.566;2022-09-24T10:16:08;99696.72;;;12.85;83.77
31681;BME280;18281;51.364;9.566;2022-09-24T10:21:13;99693.34;;;13.09;85.25
31681;BME280;18281;51.364;9.566;2022-09-24T10:23:46;99685.16;;;12.75;84.90
31681;BME280;18281;51.364;9.566;2022-09-24T10:26:13;99687.44;;;13.05;84.93
31681;BME280;18281;51.364;9.566;2022-09-24T10:28:49;99688.41;;;12.79;85.40
31681;BME280;18281;51.364;9.566;2022-09-24T10:31:36;99690.66;;;12.59;85.92
31681;BME280;18281;51.364;9.566;2022-09-24T10:34:04;99687.47;;;12.80;85.68
31681;BME280;18281;51.364;9.566;2022-09-24T10:36:50;99685.22;;;13.12;84.31
31681;BME280;18281;51.364;9.566;2022-09-24T10:39:15;99687.41;;;13.18;83.93
31681;BME280;18281;51.364;9.566;2022-09-24T10:41:49;99679.56;;;12.80;82.21
31681;BME280;18281;51.364;9.566;2022-09-24T10:44:15;99682.91;;;13.07;82.70
31681;BME280;18281;51.364;9.566;2022-09-24T10:47:06;99682.75;;;12.98;83.75
31681;BME280;18281;51.364;9.566;2022-09-24T10:58:10;99687.88;;;12.73;84.31
31681;BME280;18281;51.364;9.566;2022-09-24T11:01:08;99690.78;;;12.57;85.05
31681;BME280;18281;51.364;9.566;2022-09-24T11:09:41;99687.34;;;12.81;84.56
31681;BME280;18281;51.364;9.566;2022-09-24T11:12:23;99686.81;;;12.76;85.03
31681;BME280;18281;51.364;9.566;2022-09-24T11:17:54;99682.47;;;12.51;84.46
31681;BME280;18281;51.364;9.566;2022-09-24T11:20:42;99689.59;;;12.62;84.67
31681;BME280;18281;51.364;9.566;2022-09-24T11:26:00;99690.25;;;12.52;85.11
31681;BME280;18281;51.364;9.566;2022-09-24T11:31:40;99690.13;;;12.54;85.27
31681;BME280;18281;51.364;9.566;2022-09-24T11:42:47;99685.91;;;13.27;86.39
31681;BME280;18281;51.364;9.566;2022-09-24T11:55:53;99673.63;;;13.39;83.63
31681;BME280;18281;51.364;9.566;2022-09-24T11:58:37;99671.34;;;13.34;83.62
31681;BME280;18281;51.364;9.566;2022-09-24T12:01:34;99671.28;;;13.47;84.34
31681;BME280;18281;51.364;9.566;2022-09-24T12:04:11;99662.25;;;13.38;84.21
31681;BME280;18281;51.364;9.566;2022-09-24T12:07:06;99662.47;;;13.35;83.78
31681;BME280;18281;51.364;9.566;2022-09-24T12:09:34;99654.97;;;13.42;84.54
31681;BME280;18281;51.364;9.566;2022-09-24T12:14:56;99660.38;;;13.52;83.27
31681;BME280;18281;51.364;9.566;2022-09-24T12:17:36;99656.06;;;13.26;86.27
31681;BME280;18281;51.364;9.566;2022-09-24T12:20:15;99655.00;;;12.92;88.26
31681;BME280;18281;51.364;9.566;2022-09-24T12:22:46;99657.09;;;13.13;89.82
31681;BME280;18281;51.364;9.566;2022-09-24T12:25:13;99662.88;;;13.18;90.29
31681;BME280;18281;51.364;9.566;2022-09-24T12:27:39;99659.38;;;13.17;90.65
31681;BME280;18281;51.364;9.566;2022-09-24T12:30:23;99654.44;;;13.13;88.14
31681;BME280;18281;51.364;9.566;2022-09-24T12:38:30;99650.53;;;13.42;83.00
31681;BME280;18281;51.364;9.566;2022-09-24T12:41:20;99644.41;;;13.18;82.78
31681;BME280;18281;51.364;9.566;2022-09-24T12:46:30;99646.81;;;13.45;83.13
31681;BME280;18281;51.364;9.566;2022-09-24T12:48:56;99651.28;;;13.56;82.25
31681;BME280;18281;51.364;9.566;2022-09-24T12:51:23;99645.38;;;13.41;80.27
31681;BME280;18281;51.364;9.566;2022-09-24T12:53:55;99648.59;;;13.69;81.51
31681;BME280;18281;51.364;9.566;2022-09-24T12:56:24;99646.75;;;13.58;80.73
31681;BME280;18281;51.364;9.566;2022-09-24T12:58:51;99647.19;;;13.76;80.85
31681;BME280;18281;51.364;9.566;2022-09-24T13:04:23;99635.41;;;13.69;80.67
31681;BME280;18281;51.364;9.566;2022-09-24T13:06:50;99631.59;;;13.84;79.54
31681;BME280;18281;51.364;9.566;2022-09-24T13:09:38;99637.22;;;14.04;81.34
31681;BME280;18281;51.364;9.566;2022-09-24T13:12:18;99633.28;;;13.85;79.88
31681;BME280;18281;51.364;9.566;2022-09-24T13:15:03;99637.91;;;14.06;79.20
31681;BME280;18281;51.364;9.566;2022-09-24T13:17:58;99623.91;;;14.05;78.63
31681;BME280;18281;51.364;9.566;2022-09-24T13:20:24;99625.00;;;14.14;79.53
31681;BME280;18281;51.364;9.566;2022-09-24T13:22:59;99627.03;;;14.11;79.33
31681;BME280;18281;51.364;9.566;2022-09-24T13:25:36;99622.38;;;14.14;78.95
31681;BME280;18281;51.364;9.566;2022-09-24T13:30:58;99622.34;;;14.25;78.72
31681;BME280;18281;51.364;9.566;2022-09-24T13:33:30;99630.97;;;14.05;78.72
31681;BME280;18281;51.364;9.566;2022-09-24T13:36:13;99622.81;;;14.08;78.72
31681;BME280;18281;51.364;9.566;2022-09-24T13:38:51;99623.81;;;14.41;78.77
31681;BME280;18281;51.364;9.566;2022-09-24T13:44:12;99633.78;;;14.37;77.61
31681;BME280;18281;51.364;9.566;2022-09-24T13:46:43;99629.34;;;14.49;77.85
31681;BME280;18281;51.364;9.566;2022-09-24T13:49:14;99630.41;;;14.35;79.47
31681;BME280;18281;51.364;9.566;2022-09-24T13:51:44;99632.91;;;14.37;78.90
31681;BME280;18281;51.364;9.566;2022-09-24T13:54:22;99627.28;;;14.64;78.75
31681;BME280;18281;51.364;9.566;2022-09-24T13:57:11;99629.44;;;14.59;78.97
31681;BME280;18281;51.364;9.566;2022-09-24T13:59:37;99633.88;;;14.70;78.66
31681;BME280;18281;51.364;9.566;2022-09-24T14:02:03;99632.09;;;14.59;78.93
31681;BME280;18281;51.364;9.566;2022-09-24T14:04:43;99627.16;;;14.88;78.74
31681;BME280;18281;51.364;9.566;2022-09-24T14:07:10;99628.38;;;14.84;78.81
31681;BME280;18281;51.364;9.566;2022-09-24T14:09:36;99628.81;;;14.78;78.42
31681;BME280;18281;51.364;9.566;2022-09-24T14:12:13;99621.41;;;14.95;78.16
31681;BME280;18281;51.364;9.566;2022-09-24T14:14:43;99621.50;;;15.04;79.47
31681;BME280;18281;51.364;9.566;2022-09-24T14:17:13;99618.28;;;14.89;77.72
31681;BME280;18281;51.364;9.566;2022-09-24T14:19:40;99619.59;;;14.95;78.24
31681;BME280;18281;51.364;9.566;2022-09-24T14:22:35;99612.00;;;14.79;77.77
31681;BME280;18281;51.364;9.566;2022-09-24T14:25:06;99612.88;;;14.57;77.81
31681;BME280;18281;51.364;9.566;2022-09-24T14:27:36;99607.72;;;14.67;79.79
31681;BME280;18281;51.364;9.566;2022-09-24T14:30:07;99608.19;;;14.60;79.48
31681;BME280;18281;51.364;9.566;2022-09-24T14:33:11;99606.06;;;14.32;78.64
31681;BME280;18281;51.364;9.566;2022-09-24T14:35:48;99600.28;;;14.38;80.17
31681;BME280;18281;51.364;9.566;2022-09-24T14:38:25;99603.63;;;14.29;80.61
31681;BME280;18281;51.364;9.566;2022-09-24T14:40:54;99599.56;;;14.58;81.89
31681;BME280;18281;51.364;9.566;2022-09-24T14:43:43;99604.25;;;14.55;81.80
31681;BME280;18281;51.364;9.566;2022-09-24T14:46:30;99600.84;;;14.75;82.37
31681;BME280;18281;51.364;9.566;2022-09-24T14:49:23;99601.34;;;14.92;82.90
31681;BME280;18281;51.364;9.566;2022-09-24T14:51:59;99601.34;;;14.69;83.20